GABS

Senou Airport

Senou, Mali
METAR GABS 222100Z 22004KT 9999 FEW030 34/14 Q1011 NOSIG
Observed Flight Rules
Apr-22 @ 21:00 UTC (39 minutes ago) Visual Flight Rules
Wind Visibility Clouds
220° at 4 knots 10,000+ meters
  • Few at 3,000' AGL
Temperatures Readings
Current 34°C / 93°F
Dewpoint 14°C / 57°F
Humidity 30%
Altimeter 29.85" Hg
Pressure 1011 hPa
Elevation 381
METAR GABS 222100Z 22004KT 9999 FEW030 34/14 Q1011 NOSIG
Observed Flight Rules
Apr-22 @ 21:00 UTC
(39 minutes ago)
VFR
Wind Visibility
220° at 4 knots 10,000+ meters
Clouds
  • Few at 3,000' AGL
Temperature Dewpoint
34°C / 93°F 14°C / 57°F
Humidity Altimeter Pressure
30% 29.85" Hg 1011 hPa